createdAt,value
2023-04-18T00:00:27.756Z,101816.31
2023-04-18T00:02:55.209Z,101822.47
2023-04-18T00:05:22.260Z,101823.16
2023-04-18T00:07:48.849Z,101813.22
2023-04-18T00:10:15.535Z,101822.31
2023-04-18T00:12:42.951Z,101817.94
2023-04-18T00:15:10.426Z,101818.13
2023-04-18T00:17:40.157Z,101821.84
2023-04-18T00:20:10.859Z,101822.81
2023-04-18T00:22:42.568Z,101817.63
2023-04-18T00:25:10.564Z,101812.75
2023-04-18T00:27:38.682Z,101818.28
2023-04-18T00:30:09.058Z,101813.38
2023-04-18T00:32:35.687Z,101817.28
2023-04-18T00:35:02.451Z,101820.56
2023-04-18T00:37:29.503Z,101813.72
2023-04-18T00:39:55.992Z,101820.56
2023-04-18T00:42:22.867Z,101816.63
2023-04-18T00:44:49.413Z,101813.72
2023-04-18T00:47:19.714Z,101816.63
2023-04-18T00:49:47.593Z,101819.06
2023-04-18T00:52:15.438Z,101813.88
2023-04-18T00:54:43.014Z,101818.25
2023-04-18T00:57:09.495Z,101805.91
2023-04-18T00:59:36.077Z,101802.50
2023-04-18T01:02:04.038Z,101819.72
2023-04-18T01:04:32.600Z,101810.28
2023-04-18T01:07:00.471Z,101806.56
2023-04-18T01:09:27.159Z,101803.31
2023-04-18T01:11:53.663Z,101791.28
2023-04-18T01:14:20.732Z,101807.84
2023-04-18T01:16:48.292Z,101793.72
2023-04-18T01:19:17.367Z,101800.38
2023-04-18T01:21:44.759Z,101801.19
2023-04-18T01:24:15.912Z,101797.63
2023-04-18T01:26:45.820Z,101796.81
2023-04-18T01:29:12.376Z,101809.13
2023-04-18T01:31:40.284Z,101800.84
2023-04-18T01:34:07.841Z,101801.19
2023-04-18T01:36:36.025Z,101801.50
2023-04-18T01:39:02.637Z,101808.66
2023-04-18T01:41:32.287Z,101798.25
2023-04-18T01:43:59.522Z,101810.09
2023-04-18T01:46:26.135Z,101806.03
2023-04-18T01:48:53.015Z,101812.34
2023-04-18T01:51:19.694Z,101798.22
2023-04-18T01:53:46.131Z,101813.50
2023-04-18T01:56:12.746Z,101809.25
2023-04-18T01:58:39.374Z,101807.00
2023-04-18T02:01:05.906Z,101803.28
2023-04-18T02:03:32.549Z,101807.81
2023-04-18T02:06:00.609Z,101806.84
2023-04-18T02:08:27.157Z,101806.50
2023-04-18T02:10:53.652Z,101796.28
2023-04-18T02:13:20.189Z,101794.34
2023-04-18T02:15:46.624Z,101799.97
2023-04-18T02:18:13.268Z,101805.34
2023-04-18T02:20:39.957Z,101799.66
2023-04-18T02:23:07.077Z,101795.28
2023-04-18T02:25:33.553Z,101797.22
2023-04-18T02:28:00.040Z,101791.22
2023-04-18T02:30:26.811Z,101791.84
2023-04-18T02:32:54.694Z,101804.56
2023-04-18T02:35:21.543Z,101794.94
2023-04-18T02:37:48.067Z,101798.03
2023-04-18T02:40:14.738Z,101790.25
2023-04-18T02:42:41.253Z,101795.13
2023-04-18T02:45:08.790Z,101795.28
2023-04-18T02:47:46.998Z,101799.69
2023-04-18T02:50:20.796Z,101801.78
2023-04-18T02:52:47.394Z,101795.63
2023-04-18T02:55:13.873Z,101792.88
2023-04-18T02:57:40.274Z,101791.25
2023-04-18T03:00:08.456Z,101795.47
2023-04-18T03:02:35.122Z,101796.44
2023-04-18T03:05:01.822Z,101794.50
2023-04-18T03:07:28.384Z,101796.94
2023-04-18T03:09:54.842Z,101788.81
2023-04-18T03:12:21.363Z,101800.34
2023-04-18T03:14:47.859Z,101796.31
2023-04-18T03:17:14.416Z,101792.56
2023-04-18T03:19:40.932Z,101793.22
2023-04-18T03:22:07.409Z,101803.44
2023-04-18T03:24:33.915Z,101795.00
2023-04-18T03:27:00.680Z,101799.25
2023-04-18T03:29:27.149Z,101804.28
2023-04-18T03:31:53.655Z,101808.31
2023-04-18T03:34:20.422Z,101806.53
2023-04-18T03:36:48.207Z,101804.59
2023-04-18T03:39:14.878Z,101801.66
2023-04-18T03:41:41.329Z,101810.47
2023-04-18T03:44:08.877Z,101807.84
2023-04-18T03:46:35.551Z,101807.03
2023-04-18T03:49:02.083Z,101800.22
2023-04-18T03:51:34.141Z,101805.25
2023-04-18T03:54:00.789Z,101804.75
2023-04-18T03:56:27.437Z,101801.50
2023-04-18T03:58:53.958Z,101791.78
2023-04-18T04:01:21.595Z,101796.16
2023-04-18T04:03:48.289Z,101816.28
2023-04-18T04:06:14.920Z,101808.47
2023-04-18T04:08:41.749Z,101807.53
2023-04-18T04:11:08.192Z,101804.44
2023-04-18T04:13:36.037Z,101813.06
2023-04-18T04:16:02.722Z,101813.88
2023-04-18T04:18:31.225Z,101814.66
2023-04-18T04:20:59.240Z,101812.22
2023-04-18T04:23:26.800Z,101815.00
2023-04-18T04:25:54.208Z,101811.44
2023-04-18T04:28:23.836Z,101811.78
2023-04-18T04:30:50.865Z,101818.09
2023-04-18T04:33:21.072Z,101819.72
2023-04-18T04:35:47.928Z,101811.44
2023-04-18T04:38:15.400Z,101813.06
2023-04-18T04:40:42.686Z,101824.28
2023-04-18T04:43:12.516Z,101818.09
2023-04-18T04:45:42.206Z,101824.44
2023-04-18T04:48:09.295Z,101816.16
2023-04-18T04:50:37.384Z,101829.31
2023-04-18T04:53:07.696Z,101825.56
2023-04-18T04:55:34.610Z,101822.50
2023-04-18T04:58:01.117Z,101829.63
2023-04-18T05:00:28.845Z,101823.59
2023-04-18T05:02:56.290Z,101829.63
2023-04-18T05:05:23.120Z,101832.72
2023-04-18T05:07:49.607Z,101835.00
2023-04-18T05:10:16.227Z,101835.47
2023-04-18T05:12:42.756Z,101829.16
2023-04-18T05:15:09.590Z,101839.91
2023-04-18T05:17:36.035Z,101833.72
2023-04-18T05:20:02.998Z,101835.97
2023-04-18T05:22:29.513Z,101839.06
2023-04-18T05:24:56.020Z,101832.72
2023-04-18T05:27:22.606Z,101843.44
2023-04-18T05:29:50.241Z,101840.69
2023-04-18T05:32:16.788Z,101836.97
2023-04-18T05:34:43.403Z,101832.22
2023-04-18T05:37:09.918Z,101845.56
2023-04-18T05:39:37.759Z,101834.19
2023-04-18T05:42:04.283Z,101841.66
2023-04-18T05:44:30.769Z,101838.72
2023-04-18T05:46:57.250Z,101841.84
2023-04-18T05:49:23.733Z,101835.00
2023-04-18T05:51:50.665Z,101836.47
2023-04-18T05:54:17.242Z,101829.97
2023-04-18T05:56:43.876Z,101835.97
2023-04-18T05:59:10.774Z,101838.06
2023-04-18T06:01:37.220Z,101839.00
2023-04-18T06:04:03.909Z,101837.22
2023-04-18T06:06:31.450Z,101839.97
2023-04-18T06:08:57.998Z,101835.06
2023-04-18T06:11:24.488Z,101843.06
2023-04-18T06:13:51.017Z,101848.63
2023-04-18T06:16:18.676Z,101841.00
2023-04-18T06:18:45.270Z,101845.34
2023-04-18T06:21:13.126Z,101851.44
2023-04-18T06:23:39.651Z,101843.03
2023-04-18T06:26:07.155Z,101845.69
2023-04-18T06:28:33.614Z,101849.88
2023-04-18T06:31:00.310Z,101849.94
2023-04-18T06:33:26.881Z,101849.16
2023-04-18T06:35:53.424Z,101857.41
2023-04-18T06:38:20.440Z,101849.91
2023-04-18T06:40:46.884Z,101858.59
2023-04-18T06:43:13.303Z,101871.09
2023-04-18T06:45:40.267Z,101862.34
2023-04-18T06:48:08.940Z,101861.06
2023-04-18T06:50:35.520Z,101864.66
2023-04-18T06:53:02.290Z,101866.00
2023-04-18T06:55:28.884Z,101871.41
2023-04-18T06:57:55.585Z,101874.59
2023-04-18T07:00:22.347Z,101872.69
2023-04-18T07:02:49.132Z,101867.59
2023-04-18T07:05:15.731Z,101867.59
2023-04-18T07:07:42.182Z,101862.03
2023-04-18T07:10:09.861Z,101867.25
2023-04-18T07:12:36.433Z,101873.19
2023-04-18T07:15:03.870Z,101876.78
2023-04-18T07:17:30.604Z,101878.06
2023-04-18T07:19:57.229Z,101879.13
2023-04-18T07:22:23.751Z,101883.63
2023-04-18T07:24:50.366Z,101880.75
2023-04-18T07:27:16.887Z,101879.25
2023-04-18T07:29:43.389Z,101886.06
2023-04-18T07:32:10.862Z,101885.72
2023-04-18T07:34:37.525Z,101893.16
2023-04-18T07:37:04.195Z,101890.22
2023-04-18T07:39:35.765Z,101891.03
2023-04-18T07:42:03.698Z,101899.06
2023-04-18T07:44:30.333Z,101893.19
2023-04-18T07:46:57.117Z,101893.66
2023-04-18T07:49:23.712Z,101889.16
2023-04-18T07:51:50.202Z,101886.78
2023-04-18T07:54:16.702Z,101894.47
2023-04-18T07:56:43.150Z,101904.00
2023-04-18T07:59:09.590Z,101883.34
2023-04-18T08:01:36.122Z,101894.88
2023-04-18T08:04:02.730Z,101891.97
2023-04-18T08:06:29.438Z,101891.19
2023-04-18T08:08:56.014Z,101891.78
2023-04-18T08:11:22.625Z,101898.28
2023-04-18T08:13:49.126Z,101895.44
2023-04-18T08:16:17.439Z,101887.16
2023-04-18T08:18:44.344Z,101917.56
2023-04-18T08:21:11.034Z,101887.06
2023-04-18T08:23:37.676Z,101898.69
2023-04-18T08:26:04.315Z,101898.69
2023-04-18T08:28:30.828Z,101899.34
2023-04-18T08:30:57.385Z,101898.00
2023-04-18T08:33:24.544Z,101901.53
2023-04-18T08:35:51.871Z,101906.63
2023-04-18T08:38:19.116Z,101892.09
2023-04-18T08:40:46.392Z,101899.97
2023-04-18T08:43:15.045Z,101892.44
2023-04-18T08:45:43.205Z,101902.53
2023-04-18T08:48:13.808Z,101891.06
2023-04-18T08:50:41.516Z,101918.06
2023-04-18T08:53:08.397Z,101918.56
2023-04-18T08:55:35.653Z,101911.03
2023-04-18T08:58:04.836Z,101900.34
2023-04-18T09:00:31.394Z,101895.66
2023-04-18T09:02:58.276Z,101898.88
2023-04-18T09:05:26.733Z,101897.09
2023-04-18T09:07:54.886Z,101906.56
2023-04-18T09:10:40.371Z,101893.66
2023-04-18T09:13:09.976Z,101894.06
2023-04-18T09:15:36.507Z,101895.84
2023-04-18T09:18:03.457Z,101900.03
2023-04-18T09:20:38.345Z,101894.50
2023-04-18T09:23:14.789Z,101887.22
2023-04-18T09:25:43.599Z,101891.81
2023-04-18T09:28:31.811Z,101898.22
2023-04-18T09:31:19.055Z,101891.22
2023-04-18T09:33:54.511Z,101894.69
2023-04-18T09:36:22.238Z,101892.50
2023-04-18T09:38:51.653Z,101885.22
2023-04-18T09:41:21.389Z,101897.28
2023-04-18T09:43:48.433Z,101866.53
2023-04-18T09:46:17.472Z,101899.69
2023-04-18T09:48:44.103Z,101899.59
2023-04-18T09:51:14.409Z,101891.31
2023-04-18T09:53:44.686Z,101895.34
2023-04-18T09:56:32.293Z,101891.50
2023-04-18T09:59:28.811Z,101883.22
2023-04-18T10:01:58.174Z,101888.47
2023-04-18T10:04:25.890Z,101892.09
2023-04-18T10:06:54.184Z,101889.88
2023-04-18T10:09:22.265Z,101889.66
2023-04-18T10:11:48.834Z,101886.84
2023-04-18T10:14:16.596Z,101884.22
2023-04-18T10:16:45.574Z,101885.81
2023-04-18T10:19:26.397Z,101896.91
2023-04-18T10:21:57.428Z,101895.31
2023-04-18T10:24:49.772Z,101891.69
2023-04-18T10:27:18.125Z,101879.56
2023-04-18T10:29:54.303Z,101881.41
2023-04-18T10:32:23.881Z,101870.66
2023-04-18T10:34:53.460Z,101879.59
2023-04-18T10:37:20.251Z,101875.53
2023-04-18T10:39:58.181Z,101874.72
2023-04-18T10:42:52.617Z,101882.41
2023-04-18T10:45:23.832Z,101879.59
2023-04-18T10:47:50.747Z,101869.22
2023-04-18T10:50:17.858Z,101881.78
2023-04-18T10:52:44.406Z,101884.63
2023-04-18T10:55:18.015Z,101877.16
2023-04-18T10:57:48.732Z,101883.00
2023-04-18T11:00:17.981Z,101878.13
2023-04-18T11:02:53.693Z,101866.16
2023-04-18T11:05:23.234Z,101869.22
2023-04-18T11:07:50.279Z,101873.88
2023-04-18T11:10:22.001Z,101876.16
2023-04-18T11:12:48.806Z,101875.94
2023-04-18T11:15:23.371Z,101876.91
2023-04-18T11:17:58.613Z,101880.56
2023-04-18T11:20:25.595Z,101884.00
2023-04-18T11:22:57.771Z,101894.56
2023-04-18T11:25:34.982Z,101878.56
2023-04-18T11:28:04.452Z,101887.47
2023-04-18T11:30:38.755Z,101876.34
2023-04-18T11:33:09.898Z,101869.47
2023-04-18T11:35:40.998Z,101874.75
2023-04-18T11:38:08.746Z,101868.66
2023-04-18T11:40:36.561Z,101867.66
2023-04-18T11:43:05.027Z,101861.75
2023-04-18T11:45:31.643Z,101862.03
2023-04-18T11:47:59.561Z,101872.72
2023-04-18T11:50:26.786Z,101861.06
2023-04-18T11:52:55.009Z,101862.66
2023-04-18T11:55:24.794Z,101859.31
2023-04-18T11:57:56.797Z,101855.63
2023-04-18T12:00:40.122Z,101857.38
2023-04-18T12:03:15.594Z,101867.22
2023-04-18T12:05:42.604Z,101855.31
2023-04-18T12:08:14.295Z,101851.03
2023-04-18T12:10:51.416Z,101851.69
2023-04-18T12:13:18.999Z,101838.06
2023-04-18T12:15:46.800Z,101846.34
2023-04-18T12:18:15.362Z,101831.38
2023-04-18T12:20:53.938Z,101843.91
2023-04-18T12:23:35.699Z,101847.63
2023-04-18T12:26:05.894Z,101847.59
2023-04-18T12:28:35.848Z,101841.47
2023-04-18T12:31:05.887Z,101836.84
2023-04-18T12:33:38.674Z,101846.59
2023-04-18T12:36:06.073Z,101836.63
2023-04-18T12:38:32.908Z,101836.63
2023-04-18T12:40:59.590Z,101828.03
2023-04-18T12:43:26.677Z,101834.75
2023-04-18T12:45:53.235Z,101846.28
2023-04-18T12:48:19.706Z,101842.03
2023-04-18T12:50:46.189Z,101836.56
2023-04-18T12:53:12.716Z,101823.28
2023-04-18T12:55:39.237Z,101837.91
2023-04-18T12:58:05.747Z,101827.00
2023-04-18T13:00:32.863Z,101826.44
2023-04-18T13:03:00.037Z,101823.66
2023-04-18T13:05:31.548Z,101824.97
2023-04-18T13:08:15.154Z,101839.72
2023-04-18T13:10:43.423Z,101816.06
2023-04-18T13:13:10.006Z,101835.66
2023-04-18T13:15:36.605Z,101819.38
2023-04-18T13:18:06.077Z,101810.47
2023-04-18T13:20:33.711Z,101804.94
2023-04-18T13:23:00.373Z,101798.41
2023-04-18T13:25:27.289Z,101797.81
2023-04-18T13:27:53.818Z,101815.44
2023-04-18T13:30:20.603Z,101802.16
2023-04-18T13:32:47.302Z,101806.50
2023-04-18T13:35:13.844Z,101796.94
2023-04-18T13:37:40.425Z,101780.41
2023-04-18T13:40:08.010Z,101792.19
2023-04-18T13:42:36.406Z,101802.09
2023-04-18T13:45:03.321Z,101792.56
2023-04-18T13:47:29.965Z,101810.63
2023-04-18T13:49:57.692Z,101805.50
2023-04-18T13:52:24.569Z,101807.63
2023-04-18T13:54:51.093Z,101798.41
2023-04-18T13:57:17.556Z,101797.00
2023-04-18T13:59:44.021Z,101800.84
2023-04-18T14:02:10.946Z,101806.44
2023-04-18T14:04:37.826Z,101793.84
2023-04-18T14:07:06.227Z,101786.41
2023-04-18T14:09:32.969Z,101790.75
2023-04-18T14:11:59.556Z,101790.00
2023-04-18T14:14:26.043Z,101784.97
2023-04-18T14:16:53.771Z,101797.91
2023-04-18T14:19:20.581Z,101791.53
2023-04-18T14:21:47.903Z,101800.16
2023-04-18T14:24:14.506Z,101795.94
2023-04-18T14:26:41.075Z,101793.91
2023-04-18T14:29:07.713Z,101788.13
2023-04-18T14:31:34.837Z,101774.16
2023-04-18T14:34:01.605Z,101790.22
2023-04-18T14:36:28.189Z,101800.69
2023-04-18T14:38:55.115Z,101809.31
2023-04-18T14:41:21.828Z,101793.56
2023-04-18T14:43:48.786Z,101810.50
2023-04-18T14:46:19.027Z,101803.88
2023-04-18T14:48:48.483Z,101804.44
2023-04-18T14:51:17.228Z,101788.06
2023-04-18T14:53:44.666Z,101795.09
2023-04-18T14:56:11.552Z,101778.78
2023-04-18T14:58:38.256Z,101785.91
2023-04-18T15:01:05.178Z,101785.34
2023-04-18T15:03:31.808Z,101785.34
2023-04-18T15:05:58.539Z,101785.53
2023-04-18T15:08:25.218Z,101786.97
2023-04-18T15:10:51.625Z,101797.28
2023-04-18T15:13:18.310Z,101788.34
2023-04-18T15:15:51.675Z,101781.31
2023-04-18T15:18:18.138Z,101775.44
2023-04-18T15:20:44.731Z,101778.13
2023-04-18T15:23:13.708Z,101770.63
2023-04-18T15:25:41.553Z,101771.50
2023-04-18T15:28:08.527Z,101770.09
2023-04-18T15:30:35.342Z,101771.22
2023-04-18T15:33:02.505Z,101775.19
2023-04-18T15:35:29.117Z,101775.19
2023-04-18T15:37:56.641Z,101754.19
2023-04-18T15:40:23.609Z,101759.06
2023-04-18T15:42:51.002Z,101772.34
2023-04-18T15:45:17.664Z,101769.16
2023-04-18T15:47:44.242Z,101762.84
2023-04-18T15:50:11.141Z,101765.22
2023-04-18T15:52:38.063Z,101767.44
2023-04-18T15:55:05.256Z,101765.19
2023-04-18T15:57:32.357Z,101773.59
2023-04-18T15:59:59.668Z,101774.28
2023-04-18T16:02:26.737Z,101771.16
2023-04-18T16:04:53.397Z,101770.13
2023-04-18T16:07:19.918Z,101772.22
2023-04-18T16:09:46.505Z,101774.44
2023-04-18T16:12:13.124Z,101770.94
2023-04-18T16:14:40.141Z,101767.28
2023-04-18T16:17:06.676Z,101771.00
2023-04-18T16:19:35.068Z,101762.00
2023-04-18T16:22:03.111Z,101764.97
2023-04-18T16:24:30.835Z,101767.13
2023-04-18T16:26:58.652Z,101772.72
2023-04-18T16:29:25.306Z,101751.00
2023-04-18T16:31:52.139Z,101762.59
2023-04-18T16:34:18.671Z,101771.53
2023-04-18T16:36:45.181Z,101765.03
2023-04-18T16:39:12.013Z,101764.03
2023-04-18T16:41:38.626Z,101760.03
2023-04-18T16:44:05.395Z,101762.88
2023-04-18T16:46:32.407Z,101760.66
2023-04-18T16:48:59.382Z,101761.66
2023-04-18T16:51:26.549Z,101756.41
2023-04-18T16:53:53.151Z,101752.81
2023-04-18T16:56:19.872Z,101765.53
2023-04-18T16:58:46.781Z,101760.09
2023-04-18T17:01:13.323Z,101763.16
2023-04-18T17:03:40.006Z,101758.13
2023-04-18T17:06:09.160Z,101760.84
2023-04-18T17:08:35.966Z,101765.91
2023-04-18T17:11:02.646Z,101774.19
2023-04-18T17:13:31.694Z,101760.88
2023-04-18T17:15:58.771Z,101762.53
2023-04-18T17:18:25.671Z,101772.06
2023-04-18T17:20:52.465Z,101771.66
2023-04-18T17:23:19.320Z,101774.31
2023-04-18T17:25:46.251Z,101774.75
2023-04-18T17:28:13.846Z,101771.69
2023-04-18T17:30:41.903Z,101771.50
2023-04-18T17:33:09.652Z,101767.47
2023-04-18T17:35:36.238Z,101768.25
2023-04-18T17:38:03.340Z,101769.09
2023-04-18T17:40:30.018Z,101769.88
2023-04-18T17:42:56.652Z,101774.34
2023-04-18T17:45:23.227Z,101772.91
2023-04-18T17:47:50.835Z,101775.13
2023-04-18T17:50:17.786Z,101766.84
2023-04-18T17:52:46.353Z,101771.25
2023-04-18T17:55:13.194Z,101768.84
2023-04-18T17:57:39.845Z,101773.47
2023-04-18T18:00:10.456Z,101774.47
2023-04-18T18:02:37.900Z,101770.44
2023-04-18T18:05:05.550Z,101778.09
2023-04-18T18:07:34.831Z,101772.22
2023-04-18T18:10:02.502Z,101785.34
2023-04-18T18:12:29.122Z,101784.75
2023-04-18T18:14:57.249Z,101785.34
2023-04-18T18:17:24.571Z,101780.91
2023-04-18T18:19:51.111Z,101787.97
2023-04-18T18:22:17.991Z,101796.66
2023-04-18T18:24:44.502Z,101794.03
2023-04-18T18:27:12.295Z,101805.13
2023-04-18T18:29:38.856Z,101802.94
2023-04-18T18:32:05.853Z,101801.50
2023-04-18T18:34:32.773Z,101803.28
2023-04-18T18:36:59.235Z,101798.09
2023-04-18T18:39:25.820Z,101804.94
2023-04-18T18:41:52.860Z,101799.06
2023-04-18T18:44:19.713Z,101794.78
2023-04-18T18:46:46.976Z,101804.06
2023-04-18T18:49:14.121Z,101807.06
2023-04-18T18:51:41.295Z,101799.19
2023-04-18T18:54:08.024Z,101812.91
2023-04-18T18:56:34.646Z,101807.66
2023-04-18T18:59:01.364Z,101798.34
2023-04-18T19:01:30.206Z,101810.25
2023-04-18T19:03:56.987Z,101804.75
2023-04-18T19:06:24.010Z,101797.09
2023-04-18T19:08:50.820Z,101796.09
2023-04-18T19:11:18.819Z,101790.41
2023-04-18T19:13:45.822Z,101797.44
2023-04-18T19:16:12.573Z,101796.22
2023-04-18T19:18:40.804Z,101795.56
2023-04-18T19:21:07.615Z,101793.56
2023-04-18T19:23:34.382Z,101786.66
2023-04-18T19:26:00.863Z,101798.97
2023-04-18T19:28:27.796Z,101806.22
2023-04-18T19:30:54.355Z,101801.75
2023-04-18T19:33:21.331Z,101794.91
2023-04-18T19:35:48.092Z,101804.31
2023-04-18T19:38:14.596Z,101797.03
2023-04-18T19:40:41.363Z,101797.72
2023-04-18T19:43:08.137Z,101794.72
2023-04-18T19:45:34.764Z,101803.34
2023-04-18T19:48:01.411Z,101799.28
2023-04-18T19:50:28.359Z,101791.78
2023-04-18T19:52:54.987Z,101790.53
2023-04-18T19:55:21.857Z,101801.78
2023-04-18T19:57:48.880Z,101802.53
2023-04-18T20:00:16.049Z,101795.84
2023-04-18T20:02:42.915Z,101797.78
2023-04-18T20:05:10.179Z,101806.19
2023-04-18T20:07:37.078Z,101798.06
2023-04-18T20:10:04.525Z,101790.81
2023-04-18T20:12:31.395Z,101799.81
2023-04-18T20:14:58.946Z,101799.69
2023-04-18T20:17:26.220Z,101790.97
2023-04-18T20:19:53.070Z,101787.34
2023-04-18T20:22:19.844Z,101790.34
2023-04-18T20:24:48.142Z,101790.72
2023-04-18T20:27:15.306Z,101786.84
2023-04-18T20:29:41.942Z,101792.22
2023-04-18T20:32:08.533Z,101799.41
2023-04-18T20:34:35.827Z,101791.19
2023-04-18T20:37:02.358Z,101790.75
2023-04-18T20:39:28.832Z,101798.34
2023-04-18T20:41:57.607Z,101800.97
2023-04-18T20:44:24.927Z,101788.44
2023-04-18T20:46:53.973Z,101798.47
2023-04-18T20:49:20.574Z,101795.41
2023-04-18T20:51:47.119Z,101794.50
2023-04-18T20:54:13.972Z,101788.41
2023-04-18T20:56:40.827Z,101801.84
2023-04-18T20:59:07.349Z,101795.00
2023-04-18T21:01:35.450Z,101795.19
2023-04-18T21:04:03.338Z,101787.25
2023-04-18T21:06:29.950Z,101793.38
2023-04-18T21:08:56.447Z,101790.50
2023-04-18T21:11:23.538Z,101790.97
2023-04-18T21:13:50.070Z,101788.69
2023-04-18T21:16:16.749Z,101778.16
2023-04-18T21:18:43.292Z,101777.72
2023-04-18T21:21:09.804Z,101784.09
2023-04-18T21:23:43.376Z,101768.94
2023-04-18T21:26:13.378Z,101776.31
2023-04-18T21:28:58.183Z,101775.72
2023-04-18T21:31:26.685Z,101770.31
2023-04-18T21:33:57.417Z,101771.09
2023-04-18T21:36:26.348Z,101769.59
2023-04-18T21:38:54.000Z,101762.56
2023-04-18T21:41:20.923Z,101768.78
2023-04-18T21:43:47.895Z,101773.09
2023-04-18T21:46:14.974Z,101769.66
2023-04-18T21:48:43.484Z,101766.06
2023-04-18T21:51:11.556Z,101762.66
2023-04-18T21:53:38.916Z,101760.22
2023-04-18T21:56:06.059Z,101762.19
2023-04-18T21:58:32.872Z,101753.09
2023-04-18T22:00:59.724Z,101760.13
2023-04-18T22:03:28.427Z,101755.09
2023-04-18T22:05:58.445Z,101749.06
2023-04-18T22:08:28.276Z,101748.78
2023-04-18T22:10:56.436Z,101735.28
2023-04-18T22:13:23.767Z,101747.69
2023-04-18T22:15:51.487Z,101740.69
2023-04-18T22:18:18.968Z,101741.38
2023-04-18T22:20:46.888Z,101734.56
2023-04-18T22:23:14.246Z,101733.53
2023-04-18T22:25:40.915Z,101732.56
2023-04-18T22:28:07.701Z,101726.44
2023-04-18T22:30:34.355Z,101728.59
2023-04-18T22:33:00.912Z,101724.91
2023-04-18T22:35:27.472Z,101734.25
2023-04-18T22:37:55.287Z,101723.34
2023-04-18T22:40:21.776Z,101728.22
2023-04-18T22:42:48.329Z,101726.84
2023-04-18T22:45:15.515Z,101723.78
2023-04-18T22:47:42.042Z,101718.63
2023-04-18T22:50:08.915Z,101722.59
2023-04-18T22:52:35.555Z,101722.94
2023-04-18T22:55:02.953Z,101732.72
2023-04-18T22:57:29.737Z,101709.31
2023-04-18T22:59:56.448Z,101710.84
2023-04-18T23:02:23.205Z,101712.91
2023-04-18T23:04:50.632Z,101698.28
2023-04-18T23:07:17.192Z,101708.59
2023-04-18T23:09:43.698Z,101707.94
2023-04-18T23:12:10.149Z,101703.41
2023-04-18T23:14:36.641Z,101694.84
2023-04-18T23:17:03.184Z,101691.59
2023-04-18T23:19:29.658Z,101684.94
2023-04-18T23:21:56.162Z,101685.63
2023-04-18T23:24:22.625Z,101689.34
2023-04-18T23:26:49.048Z,101683.84
2023-04-18T23:29:15.571Z,101682.41
2023-04-18T23:31:42.101Z,101687.97
2023-04-18T23:34:09.934Z,101677.72
2023-04-18T23:36:37.171Z,101671.50
2023-04-18T23:39:04.266Z,101675.28
2023-04-18T23:41:30.821Z,101675.28
2023-04-18T23:43:57.311Z,101667.16
2023-04-18T23:46:23.864Z,101655.13
2023-04-18T23:48:50.362Z,101661.50
2023-04-18T23:51:16.873Z,101657.91
2023-04-18T23:53:43.349Z,101648.66
2023-04-18T23:56:10.007Z,101652.22
2023-04-18T23:58:36.450Z,101654.34
